createdAt,value
2018-07-23T00:00:48.316Z,5.90
2018-07-23T00:01:49.235Z,6.50
2018-07-23T00:02:53.236Z,5.70
2018-07-23T00:03:48.853Z,5.90
2018-07-23T00:04:48.204Z,5.80
2018-07-23T00:05:49.161Z,5.70
2018-07-23T00:06:48.807Z,5.90
2018-07-23T00:07:48.228Z,6.60
2018-07-23T00:08:48.444Z,6.20
2018-07-23T00:09:49.294Z,6.30
2018-07-23T00:10:48.980Z,5.80
2018-07-23T00:11:48.538Z,5.70
2018-07-23T00:12:48.940Z,6.20
2018-07-23T00:13:48.339Z,6.30
2018-07-23T00:15:31.464Z,5.80
2018-07-23T00:16:31.912Z,5.50
2018-07-23T00:17:31.834Z,6.00
2018-07-23T00:18:32.247Z,6.20
2018-07-23T00:19:31.780Z,6.00
2018-07-23T00:20:32.111Z,5.20
2018-07-23T00:21:31.899Z,6.10
2018-07-23T00:22:31.622Z,6.10
2018-07-23T00:23:32.141Z,5.50
2018-07-23T00:24:52.900Z,6.30
2018-07-23T00:25:53.349Z,6.20
2018-07-23T00:27:13.846Z,5.90
2018-07-23T00:28:14.295Z,6.20
2018-07-23T00:29:14.865Z,6.20
2018-07-23T00:30:14.424Z,5.70
2018-07-23T00:31:14.608Z,6.10
2018-07-23T00:32:35.463Z,6.30
2018-07-23T00:33:41.045Z,6.30
2018-07-23T00:34:35.846Z,6.30
2018-07-23T00:35:35.151Z,5.90
2018-07-23T00:36:35.971Z,5.80
2018-07-23T00:37:35.447Z,5.80
2018-07-23T00:38:36.072Z,6.10
2018-07-23T00:39:56.800Z,5.80
2018-07-23T00:40:59.559Z,6.20
2018-07-23T00:41:57.047Z,5.80
2018-07-23T00:42:57.579Z,6.60
2018-07-23T00:44:17.855Z,6.60
2018-07-23T00:45:18.420Z,5.90
2018-07-23T00:46:19.169Z,6.20
2018-07-23T00:47:18.995Z,6.00
2018-07-23T00:48:18.378Z,6.20
2018-07-23T00:49:19.072Z,6.40
2018-07-23T00:50:41.668Z,6.30
2018-07-23T00:51:42.165Z,6.10
2018-07-23T00:53:03.254Z,6.80
2018-07-23T00:54:04.155Z,7.30
2018-07-23T00:55:03.589Z,7.40
2018-07-23T00:56:03.788Z,6.50
2018-07-23T00:57:04.457Z,6.50
2018-07-23T00:58:04.064Z,7.50
2018-07-23T00:59:03.495Z,6.40
2018-07-23T01:00:04.230Z,6.50
2018-07-23T01:01:03.568Z,6.70
2018-07-23T01:02:04.192Z,7.00
2018-07-23T01:03:03.696Z,6.80
2018-07-23T01:04:04.277Z,6.40
2018-07-23T01:05:03.875Z,6.90
2018-07-23T01:06:04.250Z,7.00
2018-07-23T01:07:04.814Z,7.10
2018-07-23T01:08:03.960Z,6.70
2018-07-23T01:09:03.314Z,6.80
2018-07-23T01:10:03.946Z,7.20
2018-07-23T01:11:03.473Z,6.70
2018-07-23T01:12:04.127Z,6.60
2018-07-23T01:13:03.426Z,7.20
2018-07-23T01:14:04.624Z,6.50
2018-07-23T01:15:04.119Z,7.00
2018-07-23T01:16:03.691Z,7.00
2018-07-23T01:17:05.574Z,6.70
2018-07-23T01:18:04.569Z,6.50
2018-07-23T01:19:04.349Z,6.80
2018-07-23T01:20:03.809Z,6.40
2018-07-23T01:21:04.454Z,6.70
2018-07-23T01:22:04.428Z,6.50
2018-07-23T01:23:04.176Z,6.70
2018-07-23T01:24:04.091Z,6.20
2018-07-23T01:25:46.365Z,6.80
2018-07-23T01:26:46.659Z,6.40
2018-07-23T01:27:47.658Z,6.90
2018-07-23T01:28:46.894Z,7.00
2018-07-23T01:29:48.814Z,6.70
2018-07-23T01:30:48.322Z,7.00
2018-07-23T01:31:46.682Z,6.90
2018-07-23T01:32:47.396Z,6.60
2018-07-23T01:33:47.176Z,6.80
2018-07-23T01:35:07.814Z,6.70
2018-07-23T01:36:30.186Z,6.90
2018-07-23T01:37:31.210Z,6.70
2018-07-23T01:38:30.908Z,6.20
2018-07-23T01:39:53.952Z,7.00
2018-07-23T01:40:54.599Z,6.30
2018-07-23T01:41:54.184Z,7.00
2018-07-23T01:42:53.660Z,6.70
2018-07-23T01:43:55.696Z,6.60
2018-07-23T01:45:15.540Z,6.80
2018-07-23T01:46:15.980Z,6.70
2018-07-23T01:47:16.412Z,7.00
2018-07-23T01:48:15.827Z,7.60
2018-07-23T01:49:16.433Z,6.70
2018-07-23T01:50:15.950Z,7.00
2018-07-23T01:51:39.856Z,7.20
2018-07-23T01:52:40.515Z,7.50
2018-07-23T01:53:39.998Z,7.20
2018-07-23T01:54:40.380Z,7.50
2018-07-23T01:55:39.990Z,7.20
2018-07-23T01:56:40.634Z,7.50
2018-07-23T01:57:40.970Z,7.30
2018-07-23T01:58:40.511Z,7.60
2018-07-23T01:59:40.189Z,6.90
2018-07-23T02:00:39.837Z,7.50
2018-07-23T02:01:40.489Z,7.00
2018-07-23T02:03:01.470Z,7.70
2018-07-23T02:04:23.129Z,7.60
2018-07-23T02:05:24.030Z,7.70
2018-07-23T02:06:23.683Z,7.50
2018-07-23T02:07:23.483Z,7.30
2018-07-23T02:08:23.814Z,7.50
2018-07-23T02:09:23.776Z,7.80
2018-07-23T02:10:23.589Z,6.60
2018-07-23T02:11:24.626Z,7.30
2018-07-23T02:12:23.084Z,7.20
2018-07-23T02:13:23.670Z,6.90
2018-07-23T02:14:44.295Z,7.40
2018-07-23T02:15:45.192Z,6.60
2018-07-23T02:16:44.803Z,7.40
2018-07-23T02:17:44.755Z,7.80
2018-07-23T02:18:44.481Z,7.20
2018-07-23T02:19:44.805Z,7.00
2018-07-23T02:20:45.244Z,6.70
2018-07-23T02:21:44.995Z,7.00
2018-07-23T02:22:44.494Z,7.30
2018-07-23T02:23:45.129Z,6.40
2018-07-23T02:24:44.620Z,6.40
2018-07-23T02:25:45.149Z,6.90
2018-07-23T02:27:05.892Z,7.00
2018-07-23T02:28:06.284Z,6.60
2018-07-23T02:29:26.822Z,7.00
2018-07-23T02:30:27.457Z,6.80
2018-07-23T02:31:27.931Z,6.80
2018-07-23T02:32:27.474Z,7.30
2018-07-23T02:33:27.340Z,6.50
2018-07-23T02:34:27.954Z,6.40
2018-07-23T02:35:27.611Z,6.40
2018-07-23T02:36:27.022Z,7.00
2018-07-23T02:37:28.863Z,6.00
2018-07-23T02:38:27.174Z,6.50
2018-07-23T02:39:27.534Z,6.40
2018-07-23T02:40:27.715Z,6.40
2018-07-23T02:41:27.417Z,6.40
2018-07-23T02:42:26.812Z,7.20
2018-07-23T02:43:27.227Z,7.30
2018-07-23T02:44:27.724Z,7.20
2018-07-23T02:45:27.353Z,7.10
2018-07-23T02:46:27.927Z,7.40
2018-07-23T02:47:27.178Z,7.80
2018-07-23T02:48:27.611Z,7.30
2018-07-23T02:49:27.526Z,7.20
2018-07-23T02:50:27.129Z,6.50
2018-07-23T02:51:27.553Z,7.60
2018-07-23T02:52:27.201Z,6.90
2018-07-23T02:53:27.631Z,7.60
2018-07-23T02:54:27.270Z,7.10
2018-07-23T02:55:27.632Z,7.00
2018-07-23T02:56:27.025Z,7.30
2018-07-23T02:57:27.557Z,6.40
2018-07-23T02:58:26.979Z,6.60
2018-07-23T02:59:27.393Z,7.20
2018-07-23T03:00:27.931Z,6.00
2018-07-23T03:01:27.183Z,5.60
2018-07-23T03:02:48.902Z,68.40
2018-07-23T03:03:49.489Z,23.00
2018-07-23T03:05:32.596Z,25.10
2018-07-23T03:06:33.144Z,11.60
2018-07-23T03:07:32.493Z,8.30
2018-07-23T03:08:33.127Z,7.00
2018-07-23T03:09:32.453Z,6.80
2018-07-23T03:10:32.862Z,6.20
2018-07-23T03:11:32.564Z,5.60
2018-07-23T03:12:54.621Z,6.00
2018-07-23T03:13:54.946Z,6.30
2018-07-23T03:14:55.497Z,5.50
2018-07-23T03:15:54.819Z,5.40
2018-07-23T03:16:55.262Z,5.50
2018-07-23T03:17:54.735Z,5.40
2018-07-23T03:18:55.254Z,5.30
2018-07-23T03:19:54.457Z,5.80
2018-07-23T03:21:16.129Z,5.30
2018-07-23T03:22:37.733Z,5.40
2018-07-23T03:23:38.361Z,5.40
2018-07-23T03:24:38.061Z,5.60
2018-07-23T03:25:37.526Z,5.10
2018-07-23T03:26:37.791Z,4.90
2018-07-23T03:27:38.499Z,5.30
2018-07-23T03:29:01.733Z,4.70
2018-07-23T03:30:02.080Z,5.10
2018-07-23T03:31:02.770Z,5.00
2018-07-23T03:32:02.320Z,5.40
2018-07-23T03:33:01.895Z,5.40
2018-07-23T03:34:02.680Z,5.60
2018-07-23T03:35:02.066Z,5.20
2018-07-23T03:36:01.523Z,5.50
2018-07-23T03:37:02.013Z,5.20
2018-07-23T03:38:01.793Z,5.40
2018-07-23T03:39:23.803Z,5.40
2018-07-23T03:40:24.668Z,5.20
2018-07-23T03:41:24.455Z,5.80
2018-07-23T03:42:24.135Z,10.90
2018-07-23T03:43:25.004Z,14.70
2018-07-23T03:44:24.681Z,9.30
2018-07-23T03:45:24.154Z,7.70
2018-07-23T03:46:25.009Z,8.90
2018-07-23T03:47:24.476Z,10.20
2018-07-23T03:48:24.035Z,11.10
2018-07-23T03:49:24.446Z,11.90
2018-07-23T03:50:25.046Z,9.20
2018-07-23T03:51:24.347Z,6.20
2018-07-23T03:53:06.404Z,6.20
2018-07-23T03:54:06.947Z,5.70
2018-07-23T03:55:07.409Z,5.20
2018-07-23T03:56:06.811Z,5.60
2018-07-23T03:57:29.126Z,5.60
2018-07-23T03:58:29.668Z,5.70
2018-07-23T03:59:29.273Z,6.10
2018-07-23T04:00:28.916Z,6.80
2018-07-23T04:01:29.766Z,6.10
2018-07-23T04:02:29.562Z,5.70
2018-07-23T04:03:29.113Z,5.70
2018-07-23T04:04:29.769Z,5.90
2018-07-23T04:05:29.309Z,6.20
2018-07-23T04:06:29.854Z,6.80
2018-07-23T04:07:50.558Z,7.00
2018-07-23T04:08:51.128Z,6.50
2018-07-23T04:09:50.586Z,6.60
2018-07-23T04:10:51.290Z,6.60
2018-07-23T04:11:50.948Z,6.40
2018-07-23T04:12:53.046Z,6.70
2018-07-23T04:14:13.373Z,7.50
2018-07-23T04:15:14.091Z,6.80
2018-07-23T04:16:38.373Z,6.90
2018-07-23T04:17:39.386Z,6.80
2018-07-23T04:18:39.251Z,6.80
2018-07-23T04:19:38.701Z,7.20
2018-07-23T04:20:38.433Z,7.40
2018-07-23T04:21:38.901Z,7.10
2018-07-23T04:22:38.510Z,6.90
2018-07-23T04:23:40.237Z,6.60
2018-07-23T04:24:39.259Z,7.40
2018-07-23T04:25:39.023Z,7.20
2018-07-23T04:26:38.924Z,7.60
2018-07-23T04:27:38.893Z,7.70
2018-07-23T04:28:38.670Z,8.70
2018-07-23T04:29:38.479Z,7.70
2018-07-23T04:30:39.097Z,8.70
2018-07-23T04:31:38.621Z,8.50
2018-07-23T04:32:38.407Z,8.70
2018-07-23T04:33:39.170Z,8.40
2018-07-23T04:35:00.211Z,8.60
2018-07-23T04:36:00.798Z,8.60
2018-07-23T04:37:00.769Z,8.80
2018-07-23T04:38:00.406Z,9.80
2018-07-23T04:39:01.470Z,9.00
2018-07-23T04:40:01.127Z,9.60
2018-07-23T04:41:00.849Z,9.30
2018-07-23T04:42:22.347Z,9.30
2018-07-23T04:43:23.188Z,8.80
2018-07-23T04:45:05.814Z,10.20
2018-07-23T04:46:07.538Z,10.20
2018-07-23T04:47:27.449Z,10.10
2018-07-23T04:48:28.039Z,9.90
2018-07-23T04:49:27.708Z,10.20
2018-07-23T04:50:28.582Z,10.30
2018-07-23T04:51:28.273Z,10.20
2018-07-23T04:52:29.130Z,10.20
2018-07-23T04:53:49.368Z,10.50
2018-07-23T04:54:49.983Z,10.60
2018-07-23T04:55:49.578Z,10.30
2018-07-23T04:56:49.079Z,10.20
2018-07-23T04:57:49.935Z,11.00
2018-07-23T04:58:49.897Z,10.60
2018-07-23T04:59:49.670Z,11.30
2018-07-23T05:00:49.287Z,11.00
2018-07-23T05:02:10.984Z,11.20
2018-07-23T05:03:11.744Z,11.40
2018-07-23T05:04:11.180Z,11.50
2018-07-23T05:05:33.728Z,11.70
2018-07-23T05:06:34.440Z,11.80
2018-07-23T05:07:55.573Z,11.80
2018-07-23T05:08:56.260Z,12.30
2018-07-23T05:09:56.036Z,12.50
2018-07-23T05:11:17.362Z,11.90
2018-07-23T05:12:17.844Z,11.90
2018-07-23T05:13:17.408Z,12.50
2018-07-23T05:14:17.117Z,12.80
2018-07-23T05:15:18.082Z,12.00
2018-07-23T05:16:17.629Z,12.50
2018-07-23T05:17:17.267Z,12.50
2018-07-23T05:18:17.796Z,11.80
2018-07-23T05:19:17.775Z,12.90
2018-07-23T05:20:17.468Z,12.50
2018-07-23T05:21:18.642Z,12.00
2018-07-23T05:23:00.098Z,13.00
2018-07-23T05:24:03.099Z,12.50
2018-07-23T05:25:02.099Z,12.70
2018-07-23T05:26:00.848Z,12.70
2018-07-23T05:27:00.409Z,12.30
2018-07-23T05:28:01.279Z,12.00
2018-07-23T05:29:01.075Z,11.60
2018-07-23T05:30:00.986Z,11.00
2018-07-23T05:31:01.223Z,10.70
2018-07-23T05:32:22.510Z,11.00
2018-07-23T05:33:23.237Z,11.30
2018-07-23T05:34:22.934Z,11.30
2018-07-23T05:35:22.625Z,10.70
2018-07-23T05:36:23.278Z,11.30
2018-07-23T05:37:44.595Z,10.50
2018-07-23T05:38:45.206Z,10.70
2018-07-23T05:40:07.063Z,9.90
2018-07-23T05:41:28.105Z,9.20
2018-07-23T05:42:28.924Z,9.80
2018-07-23T05:43:28.826Z,10.00
2018-07-23T05:44:28.318Z,10.50
2018-07-23T05:45:28.238Z,9.90
2018-07-23T05:46:28.675Z,10.30
2018-07-23T05:47:28.591Z,10.00
2018-07-23T05:48:28.023Z,9.60
2018-07-23T05:49:50.127Z,10.10
2018-07-23T05:50:51.059Z,10.00
2018-07-23T05:52:12.064Z,10.00
2018-07-23T05:53:12.855Z,10.50
2018-07-23T05:54:12.443Z,10.00
2018-07-23T05:55:12.220Z,10.20
2018-07-23T05:56:27.281Z,10.20
2018-07-23T05:57:15.170Z,10.50
2018-07-23T05:58:12.098Z,10.20
2018-07-23T05:59:56.093Z,9.80
2018-07-23T06:00:57.007Z,9.30
2018-07-23T06:01:56.484Z,9.10
2018-07-23T06:02:56.518Z,8.90
2018-07-23T06:03:56.001Z,8.60
2018-07-23T06:04:57.018Z,8.50
2018-07-23T06:06:17.988Z,7.90
2018-07-23T06:07:19.474Z,8.60
2018-07-23T06:08:18.297Z,8.20
2018-07-23T06:09:18.113Z,8.30
2018-07-23T06:10:18.869Z,8.20
2018-07-23T06:11:18.821Z,7.80
2018-07-23T06:12:18.620Z,8.00
2018-07-23T06:13:39.959Z,7.90
2018-07-23T06:15:02.095Z,8.00
2018-07-23T06:16:02.848Z,7.90
2018-07-23T06:17:02.736Z,7.80
2018-07-23T06:18:02.427Z,7.40
2018-07-23T06:19:03.123Z,7.20
2018-07-23T06:20:30.836Z,7.90
2018-07-23T06:21:31.962Z,7.30
2018-07-23T06:22:31.812Z,7.60
2018-07-23T06:23:31.384Z,7.30
2018-07-23T06:25:15.562Z,7.30
2018-07-23T06:26:38.075Z,6.80
2018-07-23T06:27:39.077Z,6.90
2018-07-23T06:28:38.879Z,7.10
2018-07-23T06:29:38.797Z,7.70
2018-07-23T06:30:38.410Z,6.60
2018-07-23T06:31:38.027Z,7.00
2018-07-23T06:32:38.507Z,6.80
2018-07-23T06:33:38.144Z,6.60
2018-07-23T06:34:38.996Z,6.60
2018-07-23T06:35:38.581Z,6.70
2018-07-23T06:36:38.249Z,7.10
2018-07-23T06:37:39.690Z,6.30
2018-07-23T06:38:38.669Z,7.20
2018-07-23T06:39:38.609Z,6.80
2018-07-23T06:40:38.623Z,6.40
2018-07-23T06:41:59.798Z,6.80
2018-07-23T06:43:00.574Z,6.70
2018-07-23T06:44:00.344Z,6.20
2018-07-23T06:45:00.015Z,7.00
2018-07-23T06:46:00.732Z,7.20
2018-07-23T06:47:00.573Z,6.50
2018-07-23T06:48:00.177Z,6.70
2018-07-23T06:49:00.106Z,6.70
2018-07-23T06:50:00.982Z,6.60
2018-07-23T06:51:00.944Z,6.10
2018-07-23T06:52:00.690Z,6.30
2018-07-23T06:53:22.290Z,6.50
2018-07-23T06:54:23.028Z,6.20
2018-07-23T06:56:05.652Z,6.30
2018-07-23T06:57:06.671Z,6.00
2018-07-23T06:58:27.926Z,6.00
2018-07-23T06:59:28.624Z,6.00
2018-07-23T07:00:28.333Z,5.70
2018-07-23T07:01:27.930Z,5.50
2018-07-23T07:02:27.783Z,5.80
2018-07-23T07:03:28.835Z,5.30
2018-07-23T07:04:28.386Z,5.90
2018-07-23T07:05:28.450Z,5.60
2018-07-23T07:06:28.601Z,5.30
2018-07-23T07:07:28.489Z,5.40
2018-07-23T07:08:28.072Z,5.30
2018-07-23T07:09:27.887Z,5.60
2018-07-23T07:10:28.800Z,5.30
2018-07-23T07:11:28.390Z,5.60
2018-07-23T07:12:27.822Z,6.20
2018-07-23T07:13:29.275Z,5.00
2018-07-23T07:14:50.370Z,5.00
2018-07-23T07:15:50.029Z,4.60
2018-07-23T07:17:11.002Z,4.50
2018-07-23T07:18:11.682Z,4.50
2018-07-23T07:19:12.409Z,4.60
2018-07-23T07:20:32.679Z,3.90
2018-07-23T07:21:34.624Z,4.20
2018-07-23T07:22:33.464Z,4.30
2018-07-23T07:23:32.969Z,4.70
2018-07-23T07:24:53.917Z,4.60
2018-07-23T07:25:54.849Z,4.20
2018-07-23T07:26:54.815Z,4.00
2018-07-23T07:27:54.512Z,4.40
2018-07-23T07:28:54.458Z,4.50
2018-07-23T07:30:16.300Z,4.50
2018-07-23T07:31:16.821Z,4.60
2018-07-23T07:32:17.271Z,4.80
2018-07-23T07:33:17.581Z,4.60
2018-07-23T07:34:16.369Z,5.10
2018-07-23T07:35:38.981Z,5.40
2018-07-23T07:36:38.918Z,5.00
2018-07-23T07:37:38.650Z,5.40
2018-07-23T07:38:39.965Z,4.80
2018-07-23T07:39:39.432Z,5.50
2018-07-23T07:40:38.915Z,5.10
2018-07-23T07:41:39.735Z,5.60
2018-07-23T07:42:39.790Z,5.50
2018-07-23T07:43:40.101Z,4.80
2018-07-23T07:44:38.841Z,4.90
2018-07-23T07:45:39.366Z,4.90
2018-07-23T07:46:39.460Z,4.70
2018-07-23T07:47:38.995Z,5.10
2018-07-23T07:49:02.522Z,4.50
2018-07-23T07:50:03.120Z,4.30
2018-07-23T07:51:02.795Z,4.70
2018-07-23T07:52:03.327Z,4.70
2018-07-23T07:53:24.460Z,5.30
2018-07-23T07:54:24.535Z,4.50
2018-07-23T07:55:24.533Z,4.40
2018-07-23T07:56:25.363Z,4.70
2018-07-23T07:57:25.343Z,4.60
2018-07-23T07:58:46.575Z,5.50
2018-07-23T07:59:47.132Z,5.80
2018-07-23T08:00:47.213Z,5.50
2018-07-23T08:01:46.784Z,5.40
2018-07-23T08:02:46.554Z,5.10
2018-07-23T08:03:47.560Z,4.70
2018-07-23T08:04:46.197Z,5.00
2018-07-23T08:05:47.222Z,4.70
2018-07-23T08:06:46.798Z,4.40
2018-07-23T08:07:46.801Z,5.00
2018-07-23T08:09:08.348Z,4.70
2018-07-23T08:10:08.909Z,4.60
2018-07-23T08:11:31.790Z,5.60
2018-07-23T08:12:32.910Z,4.50
2018-07-23T08:13:54.653Z,5.30
2018-07-23T08:14:54.385Z,5.30
2018-07-23T08:15:55.474Z,4.40
2018-07-23T08:16:55.247Z,5.10
2018-07-23T08:18:16.826Z,4.90
2018-07-23T08:19:17.878Z,5.20
2018-07-23T08:20:17.909Z,4.80
2018-07-23T08:21:17.804Z,5.00
2018-07-23T08:22:17.740Z,4.80
2018-07-23T08:23:17.220Z,4.80
2018-07-23T08:24:16.907Z,4.80
2018-07-23T08:25:17.605Z,4.80
2018-07-23T08:26:17.177Z,5.00
2018-07-23T08:27:17.056Z,5.00
2018-07-23T08:28:17.505Z,5.10
2018-07-23T08:29:17.077Z,4.80
2018-07-23T08:30:16.687Z,5.10
2018-07-23T08:31:17.511Z,5.00
2018-07-23T08:32:17.467Z,5.20
2018-07-23T08:33:17.304Z,5.60
2018-07-23T08:34:17.769Z,4.40
2018-07-23T08:35:17.328Z,5.30
2018-07-23T08:36:16.961Z,4.90
2018-07-23T08:37:16.854Z,5.20
2018-07-23T08:39:00.832Z,4.80
2018-07-23T08:40:01.467Z,4.60
2018-07-23T08:41:44.673Z,5.20
2018-07-23T08:42:45.612Z,4.70
2018-07-23T08:44:07.110Z,5.00
2018-07-23T08:45:29.761Z,5.20
2018-07-23T08:46:30.703Z,5.30
2018-07-23T08:47:29.391Z,5.50
2018-07-23T08:48:30.329Z,5.00
2018-07-23T08:49:30.245Z,5.20
2018-07-23T08:50:51.685Z,5.10
2018-07-23T08:51:52.701Z,5.00
2018-07-23T08:53:35.715Z,5.40
2018-07-23T08:54:36.226Z,5.40
2018-07-23T08:55:36.213Z,5.00
2018-07-23T08:56:36.054Z,5.00
2018-07-23T08:57:35.773Z,4.80
2018-07-23T08:58:36.366Z,4.60
2018-07-23T08:59:36.038Z,5.50
2018-07-23T09:00:57.290Z,4.70
2018-07-23T09:01:57.777Z,4.70
2018-07-23T09:02:57.534Z,4.80
2018-07-23T09:03:58.124Z,5.00
2018-07-23T09:04:57.892Z,5.20
2018-07-23T09:06:19.169Z,5.60
2018-07-23T09:07:20.184Z,4.80
2018-07-23T09:08:20.191Z,4.30
2018-07-23T09:09:20.001Z,4.70
2018-07-23T09:10:20.024Z,4.50
2018-07-23T09:11:41.238Z,5.10
2018-07-23T09:12:41.978Z,4.90
2018-07-23T09:13:41.655Z,4.90
2018-07-23T09:14:41.678Z,4.90
2018-07-23T09:15:41.532Z,4.60
2018-07-23T09:17:23.997Z,4.60
2018-07-23T09:18:24.872Z,4.20
2018-07-23T09:19:24.824Z,4.50
2018-07-23T09:20:45.872Z,5.00
2018-07-23T09:21:46.730Z,5.30
2018-07-23T09:22:47.758Z,5.30
2018-07-23T09:23:46.722Z,5.00
2018-07-23T09:24:46.652Z,5.30
2018-07-23T09:25:46.602Z,5.10
2018-07-23T09:26:46.427Z,4.80
2018-07-23T09:27:45.912Z,5.00
2018-07-23T09:28:46.738Z,4.70
2018-07-23T09:29:46.354Z,4.50
2018-07-23T09:30:46.030Z,4.40
2018-07-23T09:31:45.886Z,4.60
2018-07-23T09:32:46.499Z,4.20
2018-07-23T09:33:46.115Z,4.30
2018-07-23T09:34:45.562Z,4.60
2018-07-23T09:36:07.508Z,4.20
2018-07-23T09:37:08.218Z,4.80
2018-07-23T09:38:08.784Z,4.50
2018-07-23T09:39:08.391Z,4.90
2018-07-23T09:40:08.142Z,3.90
2018-07-23T09:41:08.005Z,4.10
2018-07-23T09:42:07.951Z,5.10
2018-07-23T09:43:29.892Z,4.70
2018-07-23T09:44:30.632Z,4.30
2018-07-23T09:45:30.546Z,4.10
2018-07-23T09:46:30.124Z,4.30
2018-07-23T09:47:54.394Z,4.60
2018-07-23T09:48:55.115Z,4.60
2018-07-23T09:49:54.690Z,4.30
2018-07-23T09:50:54.313Z,4.00
2018-07-23T09:51:55.306Z,4.50
2018-07-23T09:52:55.061Z,4.00
2018-07-23T09:53:54.843Z,5.10
2018-07-23T09:55:16.441Z,4.40
2018-07-23T09:56:16.852Z,4.60
2018-07-23T09:57:16.366Z,4.50
2018-07-23T09:58:16.769Z,4.10
2018-07-23T09:59:16.412Z,3.70
2018-07-23T10:00:38.391Z,4.20
2018-07-23T10:01:39.051Z,4.60
2018-07-23T10:02:39.004Z,4.20
2018-07-23T10:03:38.804Z,4.50
2018-07-23T10:04:38.445Z,4.20
2018-07-23T10:05:39.006Z,4.00
2018-07-23T10:06:39.405Z,4.20
2018-07-23T10:07:38.990Z,3.90
2018-07-23T10:08:38.627Z,4.20
2018-07-23T10:09:38.384Z,4.10
2018-07-23T10:10:39.723Z,3.70
2018-07-23T10:11:38.281Z,3.50
2018-07-23T10:12:39.194Z,3.80
2018-07-23T10:13:38.883Z,4.20
2018-07-23T10:15:00.489Z,3.70
2018-07-23T10:16:22.688Z,3.50
2018-07-23T10:17:23.941Z,3.60
2018-07-23T10:18:22.900Z,3.50
2018-07-23T10:19:22.933Z,4.10
2018-07-23T10:20:44.709Z,3.40
2018-07-23T10:21:45.588Z,3.40
2018-07-23T10:22:45.271Z,3.70
2018-07-23T10:23:44.815Z,3.50
2018-07-23T10:24:45.455Z,3.40
2018-07-23T10:25:45.605Z,3.60
2018-07-23T10:26:45.290Z,3.20
2018-07-23T10:27:44.974Z,3.30
2018-07-23T10:28:45.528Z,3.20
2018-07-23T10:30:06.496Z,3.10
2018-07-23T10:31:07.204Z,2.80
2018-07-23T10:32:06.958Z,2.70
2018-07-23T10:33:06.829Z,3.30
2018-07-23T10:34:29.192Z,3.20
2018-07-23T10:35:50.879Z,3.30
2018-07-23T10:36:50.881Z,2.80
2018-07-23T10:37:51.702Z,3.10
2018-07-23T10:38:51.799Z,3.50
2018-07-23T10:39:50.686Z,2.80
2018-07-23T10:40:51.922Z,3.20
2018-07-23T10:41:50.796Z,3.00
2018-07-23T10:42:51.287Z,2.90
2018-07-23T10:43:50.900Z,2.80
2018-07-23T10:44:50.598Z,2.90
2018-07-23T10:45:51.037Z,2.80
2018-07-23T10:46:50.595Z,3.00
2018-07-23T10:48:33.800Z,2.70
2018-07-23T10:49:34.360Z,2.80
2018-07-23T10:50:34.465Z,3.30
2018-07-23T10:51:34.327Z,3.20
2018-07-23T10:52:55.038Z,3.00
2018-07-23T10:53:55.814Z,3.10
2018-07-23T10:54:55.491Z,3.00
2018-07-23T10:55:56.276Z,2.80
2018-07-23T10:56:55.969Z,3.10
2018-07-23T10:57:55.912Z,2.80
2018-07-23T10:59:17.232Z,2.80
2018-07-23T11:00:18.074Z,2.90
2018-07-23T11:01:17.579Z,2.90
2018-07-23T11:02:17.486Z,3.20
2018-07-23T11:03:18.258Z,3.00
2018-07-23T11:04:18.069Z,3.10
2018-07-23T11:05:17.809Z,2.90
2018-07-23T11:06:17.442Z,3.20
2018-07-23T11:07:39.549Z,3.50
2018-07-23T11:08:40.337Z,3.70
2018-07-23T11:09:40.058Z,3.10
2018-07-23T11:10:40.291Z,3.00
2018-07-23T11:12:01.888Z,3.00
2018-07-23T11:13:02.503Z,2.60
2018-07-23T11:14:02.296Z,2.70
2018-07-23T11:15:03.171Z,3.20
2018-07-23T11:16:02.909Z,2.90
2018-07-23T11:17:02.641Z,3.20
2018-07-23T11:18:02.417Z,2.70
2018-07-23T11:19:02.175Z,2.70
2018-07-23T11:20:02.980Z,2.80
2018-07-23T11:21:02.933Z,2.90
2018-07-23T11:22:03.061Z,2.80
2018-07-23T11:23:04.127Z,2.80
2018-07-23T11:24:26.429Z,3.20
2018-07-23T11:25:39.178Z,2.70
2018-07-23T11:26:18.066Z,2.80
2018-07-23T11:28:01.933Z,3.20
2018-07-23T11:29:02.538Z,3.20
2018-07-23T11:30:02.277Z,3.00
2018-07-23T11:31:03.055Z,3.30
2018-07-23T11:32:02.917Z,2.90
2018-07-23T11:33:23.969Z,3.10
2018-07-23T11:34:25.288Z,3.00
2018-07-23T11:35:25.065Z,3.20
2018-07-23T11:36:24.703Z,3.20
2018-07-23T11:37:24.430Z,3.40
2018-07-23T11:38:47.774Z,3.20
2018-07-23T11:40:31.529Z,3.20
2018-07-23T11:41:32.326Z,3.50
2018-07-23T11:42:32.222Z,3.40
2018-07-23T11:43:32.111Z,3.40
2018-07-23T11:44:31.823Z,2.90
2018-07-23T11:45:32.362Z,3.50
2018-07-23T11:46:32.078Z,3.20
2018-07-23T11:47:31.757Z,3.00
2018-07-23T11:48:32.345Z,2.90
2018-07-23T11:49:32.152Z,3.00
2018-07-23T11:50:31.700Z,2.80
2018-07-23T11:51:32.764Z,2.90
2018-07-23T11:52:32.700Z,2.90
2018-07-23T11:53:32.409Z,3.20
2018-07-23T11:54:32.102Z,3.00
2018-07-23T11:55:32.066Z,3.00
2018-07-23T11:56:31.755Z,2.80
2018-07-23T11:57:31.577Z,3.10
2018-07-23T11:58:32.356Z,2.60
2018-07-23T11:59:31.992Z,3.00
2018-07-23T12:00:31.529Z,3.00
2018-07-23T12:01:53.949Z,2.70
2018-07-23T12:02:54.584Z,2.80
2018-07-23T12:03:54.514Z,2.70
2018-07-23T12:04:54.049Z,2.90
2018-07-23T12:05:53.933Z,2.40
2018-07-23T12:06:54.516Z,2.70
2018-07-23T12:07:53.888Z,2.80
2018-07-23T12:08:54.541Z,3.00
2018-07-23T12:09:54.038Z,2.80
2018-07-23T12:10:53.585Z,3.00
2018-07-23T12:12:15.563Z,2.50
2018-07-23T12:13:16.902Z,2.50
2018-07-23T12:14:16.422Z,2.80
2018-07-23T12:15:15.804Z,2.60
2018-07-23T12:16:17.167Z,2.70
2018-07-23T12:17:16.466Z,2.40
2018-07-23T12:18:16.033Z,3.20
2018-07-23T12:19:15.816Z,2.60
2018-07-23T12:20:16.482Z,2.80
2018-07-23T12:21:16.399Z,2.70
2018-07-23T12:22:15.971Z,2.50
2018-07-23T12:23:40.030Z,2.60
2018-07-23T12:24:40.814Z,2.60
2018-07-23T12:26:02.955Z,2.60
2018-07-23T12:27:02.756Z,2.70
2018-07-23T12:28:24.862Z,2.60
2018-07-23T12:29:25.593Z,2.60
2018-07-23T12:30:25.594Z,2.90
2018-07-23T12:31:25.216Z,2.50
2018-07-23T12:32:24.800Z,2.50
2018-07-23T12:33:25.615Z,2.80
2018-07-23T12:34:46.384Z,2.60
2018-07-23T12:35:47.293Z,2.60
2018-07-23T12:36:46.929Z,2.50
2018-07-23T12:37:46.567Z,2.70
2018-07-23T12:38:47.007Z,2.80
2018-07-23T12:40:07.704Z,2.60
2018-07-23T12:41:08.180Z,2.60
2018-07-23T12:42:07.836Z,2.80
2018-07-23T12:43:08.900Z,2.50
2018-07-23T12:44:30.839Z,2.50
2018-07-23T12:45:30.626Z,2.90
2018-07-23T12:46:53.798Z,3.00
2018-07-23T12:47:53.844Z,3.00
2018-07-23T12:48:56.551Z,2.90
2018-07-23T12:49:55.043Z,3.00
2018-07-23T12:51:17.548Z,2.90
2018-07-23T12:52:18.224Z,3.20
2018-07-23T12:53:18.002Z,3.20
2018-07-23T12:54:17.573Z,3.10
2018-07-23T12:55:18.255Z,2.90
2018-07-23T12:56:17.860Z,3.10
2018-07-23T12:57:18.180Z,3.10
2018-07-23T12:58:18.123Z,2.90
2018-07-23T12:59:17.673Z,2.50
2018-07-23T13:00:17.504Z,2.60
2018-07-23T13:01:17.664Z,2.80
2018-07-23T13:02:18.612Z,3.10
2018-07-23T13:03:41.727Z,3.00
2018-07-23T13:04:42.294Z,3.50
2018-07-23T13:05:41.952Z,3.10
2018-07-23T13:06:42.938Z,2.40
2018-07-23T13:08:06.770Z,2.80
2018-07-23T13:09:29.431Z,2.70
2018-07-23T13:10:33.791Z,2.60
2018-07-23T13:11:30.393Z,2.80
2018-07-23T13:12:29.970Z,2.80
2018-07-23T13:13:29.587Z,2.60
2018-07-23T13:14:30.081Z,2.70
2018-07-23T13:15:30.206Z,2.80
2018-07-23T13:16:51.650Z,2.40
2018-07-23T13:17:52.543Z,2.40
2018-07-23T13:18:58.800Z,2.70
2018-07-23T13:19:52.404Z,2.40
2018-07-23T13:20:51.925Z,2.30
2018-07-23T13:21:51.405Z,2.40
2018-07-23T13:22:51.927Z,2.50
2018-07-23T13:23:52.168Z,2.60
2018-07-23T13:25:34.795Z,2.40
2018-07-23T13:26:35.603Z,2.50
2018-07-23T13:27:35.998Z,2.70
2018-07-23T13:28:35.496Z,2.70
2018-07-23T13:29:35.362Z,2.50
2018-07-23T13:30:35.204Z,2.20
2018-07-23T13:31:35.092Z,2.80
2018-07-23T13:32:34.747Z,2.50
2018-07-23T13:33:35.375Z,2.00
2018-07-23T13:34:36.083Z,2.30
2018-07-23T13:35:34.874Z,2.40
2018-07-23T13:36:35.730Z,2.70
2018-07-23T13:37:35.429Z,2.50
2018-07-23T13:38:35.484Z,2.60
2018-07-23T13:39:35.437Z,2.10
2018-07-23T13:40:35.249Z,2.40
2018-07-23T13:41:35.134Z,2.70
2018-07-23T13:42:35.014Z,2.40
2018-07-23T13:43:35.664Z,2.30
2018-07-23T13:44:35.374Z,2.50
2018-07-23T13:45:35.460Z,2.20
2018-07-23T13:46:35.312Z,2.20
2018-07-23T13:47:34.841Z,2.20
2018-07-23T13:48:36.963Z,2.50
2018-07-23T13:49:35.505Z,2.70
2018-07-23T13:50:35.214Z,2.50
2018-07-23T13:51:35.202Z,2.20
2018-07-23T13:52:35.027Z,2.40
2018-07-23T13:53:35.620Z,2.40
2018-07-23T13:55:20.207Z,2.70
2018-07-23T13:56:20.741Z,2.40
2018-07-23T13:57:20.126Z,2.10
2018-07-23T13:58:20.708Z,2.20
2018-07-23T13:59:20.214Z,2.50
2018-07-23T14:00:21.817Z,2.30
2018-07-23T14:01:20.267Z,2.90
2018-07-23T14:02:21.009Z,2.90
2018-07-23T14:03:22.568Z,2.40
2018-07-23T14:04:20.028Z,2.50
2018-07-23T14:05:21.049Z,2.50
2018-07-23T14:06:20.769Z,2.80
2018-07-23T14:07:20.495Z,2.40